sensor_id;sensor_type;location;lat;lon;timestamp;P1;P2;P0
51052;PMS5003;37093;37.716;-122.060;2022-10-16T00:00:17;12;12;
51052;PMS5003;37093;37.716;-122.060;2022-10-16T00:02:45;13;11;
51052;PMS5003;37093;37.716;-122.060;2022-10-16T00:05:14;13;11;
51052;PMS5003;37093;37.716;-122.060;2022-10-16T00:07:42;12;12;
51052;PMS5003;37093;37.716;-122.060;2022-10-16T00:10:11;17;13;
51052;PMS5003;37093;37.716;-122.060;2022-10-16T00:12:39;15;13;
51052;PMS5003;37093;37.716;-122.060;2022-10-16T00:15:08;13;11;
51052;PMS5003;37093;37.716;-122.060;2022-10-16T00:17:36;13;11;
51052;PMS5003;37093;37.716;-122.060;2022-10-16T00:20:05;15;14;
51052;PMS5003;37093;37.716;-122.060;2022-10-16T00:22:35;16;13;
51052;PMS5003;37093;37.716;-122.060;2022-10-16T00:25:04;15;9;
51052;PMS5003;37093;37.716;-122.060;2022-10-16T00:27:33;12;11;
51052;PMS5003;37093;37.716;-122.060;2022-10-16T00:30:02;11;10;
51052;PMS5003;37093;37.716;-122.060;2022-10-16T00:32:32;16;14;
51052;PMS5003;37093;37.716;-122.060;2022-10-16T00:35:01;14;12;
51052;PMS5003;37093;37.716;-122.060;2022-10-16T00:37:29;12;10;
51052;PMS5003;37093;37.716;-122.060;2022-10-16T00:39:57;12;12;
51052;PMS5003;37093;37.716;-122.060;2022-10-16T00:42:25;14;12;
51052;PMS5003;37093;37.716;-122.060;2022-10-16T00:44:54;13;12;
51052;PMS5003;37093;37.716;-122.060;2022-10-16T00:47:26;12;12;
51052;PMS5003;37093;37.716;-122.060;2022-10-16T00:49:59;17;15;
51052;PMS5003;37093;37.716;-122.060;2022-10-16T00:52:33;11;11;
51052;PMS5003;37093;37.716;-122.060;2022-10-16T00:55:04;22;14;
51052;PMS5003;37093;37.716;-122.060;2022-10-16T00:57:34;15;14;
51052;PMS5003;37093;37.716;-122.060;2022-10-16T01:00:05;12;12;
51052;PMS5003;37093;37.716;-122.060;2022-10-16T01:02:36;14;13;
51052;PMS5003;37093;37.716;-122.060;2022-10-16T01:05:05;18;14;
51052;PMS5003;37093;37.716;-122.060;2022-10-16T01:07:38;19;13;
51052;PMS5003;37093;37.716;-122.060;2022-10-16T01:10:20;15;14;
51052;PMS5003;37093;37.716;-122.060;2022-10-16T01:12:57;12;12;
51052;PMS5003;37093;37.716;-122.060;2022-10-16T01:15:31;17;13;
51052;PMS5003;37093;37.716;-122.060;2022-10-16T01:18:05;13;13;
51052;PMS5003;37093;37.716;-122.060;2022-10-16T01:20:42;23;14;
51052;PMS5003;37093;37.716;-122.060;2022-10-16T01:23:21;14;13;
51052;PMS5003;37093;37.716;-122.060;2022-10-16T01:26:08;17;13;
51052;PMS5003;37093;37.716;-122.060;2022-10-16T01:28:46;16;15;
51052;PMS5003;37093;37.716;-122.060;2022-10-16T01:31:23;21;14;
51052;PMS5003;37093;37.716;-122.060;2022-10-16T01:33:58;20;14;
51052;PMS5003;37093;37.716;-122.060;2022-10-16T01:36:33;16;14;
51052;PMS5003;37093;37.716;-122.060;2022-10-16T01:39:06;14;11;
51052;PMS5003;37093;37.716;-122.060;2022-10-16T01:41:39;15;12;
51052;PMS5003;37093;37.716;-122.060;2022-10-16T01:44:13;23;16;
51052;PMS5003;37093;37.716;-122.060;2022-10-16T01:46:46;17;14;
51052;PMS5003;37093;37.716;-122.060;2022-10-16T01:49:18;19;16;
51052;PMS5003;37093;37.716;-122.060;2022-10-16T01:51:49;17;15;
51052;PMS5003;37093;37.716;-122.060;2022-10-16T01:54:23;20;13;
51052;PMS5003;37093;37.716;-122.060;2022-10-16T01:56:55;16;14;
51052;PMS5003;37093;37.716;-122.060;2022-10-16T01:59:26;17;14;
51052;PMS5003;37093;37.716;-122.060;2022-10-16T02:01:59;14;13;
51052;PMS5003;37093;37.716;-122.060;2022-10-16T02:04:32;17;13;
51052;PMS5003;37093;37.716;-122.060;2022-10-16T02:07:03;16;14;
51052;PMS5003;37093;37.716;-122.060;2022-10-16T02:09:33;16;12;
51052;PMS5003;37093;37.716;-122.060;2022-10-16T02:12:03;15;13;
51052;PMS5003;37093;37.716;-122.060;2022-10-16T02:14:37;17;13;
51052;PMS5003;37093;37.716;-122.060;2022-10-16T02:17:11;17;15;
51052;PMS5003;37093;37.716;-122.060;2022-10-16T02:19:41;19;15;
51052;PMS5003;37093;37.716;-122.060;2022-10-16T02:22:14;19;16;
51052;PMS5003;37093;37.716;-122.060;2022-10-16T02:24:48;18;13;
51052;PMS5003;37093;37.716;-122.060;2022-10-16T02:27:23;20;14;
51052;PMS5003;37093;37.716;-122.060;2022-10-16T02:29:59;19;14;
51052;PMS5003;37093;37.716;-122.060;2022-10-16T02:32:33;18;14;
51052;PMS5003;37093;37.716;-122.060;2022-10-16T02:35:04;16;15;
51052;PMS5003;37093;37.716;-122.060;2022-10-16T02:37:34;19;15;
51052;PMS5003;37093;37.716;-122.060;2022-10-16T02:40:03;14;14;
51052;PMS5003;37093;37.716;-122.060;2022-10-16T02:42:34;17;13;
51052;PMS5003;37093;37.716;-122.060;2022-10-16T02:45:04;17;16;
51052;PMS5003;37093;37.716;-122.060;2022-10-16T02:47:35;15;11;
51052;PMS5003;37093;37.716;-122.060;2022-10-16T02:50:04;22;15;
51052;PMS5003;37093;37.716;-122.060;2022-10-16T02:52:33;18;15;
51052;PMS5003;37093;37.716;-122.060;2022-10-16T02:55:02;18;16;
51052;PMS5003;37093;37.716;-122.060;2022-10-16T02:57:31;17;14;
51052;PMS5003;37093;37.716;-122.060;2022-10-16T02:59:59;22;13;
51052;PMS5003;37093;37.716;-122.060;2022-10-16T03:02:28;15;13;
51052;PMS5003;37093;37.716;-122.060;2022-10-16T03:04:56;19;12;
51052;PMS5003;37093;37.716;-122.060;2022-10-16T03:07:24;16;15;
51052;PMS5003;37093;37.716;-122.060;2022-10-16T03:09:53;18;16;
51052;PMS5003;37093;37.716;-122.060;2022-10-16T03:12:22;19;13;
51052;PMS5003;37093;37.716;-122.060;2022-10-16T03:14:50;21;15;
51052;PMS5003;37093;37.716;-122.060;2022-10-16T03:17:18;26;14;
51052;PMS5003;37093;37.716;-122.060;2022-10-16T03:19:46;17;16;
51052;PMS5003;37093;37.716;-122.060;2022-10-16T03:22:15;24;16;
51052;PMS5003;37093;37.716;-122.060;2022-10-16T03:24:43;17;14;
51052;PMS5003;37093;37.716;-122.060;2022-10-16T03:27:11;20;16;
51052;PMS5003;37093;37.716;-122.060;2022-10-16T03:29:40;19;19;
51052;PMS5003;37093;37.716;-122.060;2022-10-16T03:32:08;22;18;
51052;PMS5003;37093;37.716;-122.060;2022-10-16T03:34:36;20;16;
51052;PMS5003;37093;37.716;-122.060;2022-10-16T03:37:04;24;17;
51052;PMS5003;37093;37.716;-122.060;2022-10-16T03:39:32;16;16;
51052;PMS5003;37093;37.716;-122.060;2022-10-16T03:42:00;23;16;
51052;PMS5003;37093;37.716;-122.060;2022-10-16T03:44:28;24;20;
51052;PMS5003;37093;37.716;-122.060;2022-10-16T03:46:57;17;16;
51052;PMS5003;37093;37.716;-122.060;2022-10-16T03:49:25;15;15;
51052;PMS5003;37093;37.716;-122.060;2022-10-16T03:51:53;18;13;
51052;PMS5003;37093;37.716;-122.060;2022-10-16T03:54:21;18;17;
51052;PMS5003;37093;37.716;-122.060;2022-10-16T03:56:49;28;18;
51052;PMS5003;37093;37.716;-122.060;2022-10-16T03:59:18;20;14;
51052;PMS5003;37093;37.716;-122.060;2022-10-16T04:01:46;19;17;
51052;PMS5003;37093;37.716;-122.060;2022-10-16T04:04:15;19;18;
51052;PMS5003;37093;37.716;-122.060;2022-10-16T04:06:43;16;15;
51052;PMS5003;37093;37.716;-122.060;2022-10-16T04:09:11;17;15;
51052;PMS5003;37093;37.716;-122.060;2022-10-16T04:11:41;19;19;
51052;PMS5003;37093;37.716;-122.060;2022-10-16T04:14:09;16;14;
51052;PMS5003;37093;37.716;-122.060;2022-10-16T04:16:37;26;15;
51052;PMS5003;37093;37.716;-122.060;2022-10-16T04:19:05;26;17;
51052;PMS5003;37093;37.716;-122.060;2022-10-16T04:21:33;25;21;
51052;PMS5003;37093;37.716;-122.060;2022-10-16T04:24:02;22;19;
51052;PMS5003;37093;37.716;-122.060;2022-10-16T04:26:31;21;17;
51052;PMS5003;37093;37.716;-122.060;2022-10-16T04:28:59;20;17;
51052;PMS5003;37093;37.716;-122.060;2022-10-16T04:31:28;31;20;
51052;PMS5003;37093;37.716;-122.060;2022-10-16T04:33:56;20;16;
51052;PMS5003;37093;37.716;-122.060;2022-10-16T04:36:24;25;17;
51052;PMS5003;37093;37.716;-122.060;2022-10-16T04:38:52;29;21;
51052;PMS5003;37093;37.716;-122.060;2022-10-16T04:41:21;21;20;
51052;PMS5003;37093;37.716;-122.060;2022-10-16T04:43:50;20;15;
51052;PMS5003;37093;37.716;-122.060;2022-10-16T04:46:18;19;17;
51052;PMS5003;37093;37.716;-122.060;2022-10-16T04:48:46;25;17;
51052;PMS5003;37093;37.716;-122.060;2022-10-16T04:51:14;22;18;
51052;PMS5003;37093;37.716;-122.060;2022-10-16T04:53:43;23;18;
51052;PMS5003;37093;37.716;-122.060;2022-10-16T04:56:11;24;21;
51052;PMS5003;37093;37.716;-122.060;2022-10-16T04:58:39;22;18;
51052;PMS5003;37093;37.716;-122.060;2022-10-16T05:01:07;21;17;
51052;PMS5003;37093;37.716;-122.060;2022-10-16T05:03:36;24;18;
51052;PMS5003;37093;37.716;-122.060;2022-10-16T05:06:05;23;19;
51052;PMS5003;37093;37.716;-122.060;2022-10-16T05:08:33;21;17;
51052;PMS5003;37093;37.716;-122.060;2022-10-16T05:11:02;15;15;
51052;PMS5003;37093;37.716;-122.060;2022-10-16T05:13:31;23;17;
51052;PMS5003;37093;37.716;-122.060;2022-10-16T05:16:00;20;16;
51052;PMS5003;37093;37.716;-122.060;2022-10-16T05:18:29;19;18;
51052;PMS5003;37093;37.716;-122.060;2022-10-16T05:20:57;19;17;
51052;PMS5003;37093;37.716;-122.060;2022-10-16T05:23:25;22;15;
51052;PMS5003;37093;37.716;-122.060;2022-10-16T05:25:54;22;17;
51052;PMS5003;37093;37.716;-122.060;2022-10-16T05:28:23;17;14;
51052;PMS5003;37093;37.716;-122.060;2022-10-16T05:30:52;23;14;
51052;PMS5003;37093;37.716;-122.060;2022-10-16T05:33:21;21;17;
51052;PMS5003;37093;37.716;-122.060;2022-10-16T05:35:51;20;16;
51052;PMS5003;37093;37.716;-122.060;2022-10-16T05:38:19;20;16;
51052;PMS5003;37093;37.716;-122.060;2022-10-16T05:40:50;22;18;
51052;PMS5003;37093;37.716;-122.060;2022-10-16T05:43:20;16;15;
51052;PMS5003;37093;37.716;-122.060;2022-10-16T05:45:53;17;14;
51052;PMS5003;37093;37.716;-122.060;2022-10-16T05:48:22;25;19;
51052;PMS5003;37093;37.716;-122.060;2022-10-16T05:50:56;22;17;
51052;PMS5003;37093;37.716;-122.060;2022-10-16T05:53:26;20;17;
51052;PMS5003;37093;37.716;-122.060;2022-10-16T05:55:55;25;17;
51052;PMS5003;37093;37.716;-122.060;2022-10-16T05:58:24;22;15;
51052;PMS5003;37093;37.716;-122.060;2022-10-16T06:00:55;21;16;
51052;PMS5003;37093;37.716;-122.060;2022-10-16T06:03:25;23;19;
51052;PMS5003;37093;37.716;-122.060;2022-10-16T06:05:54;22;19;
51052;PMS5003;37093;37.716;-122.060;2022-10-16T06:08:22;15;12;
51052;PMS5003;37093;37.716;-122.060;2022-10-16T06:11:00;21;17;
51052;PMS5003;37093;37.716;-122.060;2022-10-16T06:13:29;31;16;
51052;PMS5003;37093;37.716;-122.060;2022-10-16T06:15:58;21;18;
51052;PMS5003;37093;37.716;-122.060;2022-10-16T06:18:28;23;18;
51052;PMS5003;37093;37.716;-122.060;2022-10-16T06:20:56;19;17;
51052;PMS5003;37093;37.716;-122.060;2022-10-16T06:23:25;24;21;
51052;PMS5003;37093;37.716;-122.060;2022-10-16T06:25:55;18;18;
51052;PMS5003;37093;37.716;-122.060;2022-10-16T06:28:32;21;18;
51052;PMS5003;37093;37.716;-122.060;2022-10-16T06:31:01;22;17;
51052;PMS5003;37093;37.716;-122.060;2022-10-16T06:33:30;21;18;
51052;PMS5003;37093;37.716;-122.060;2022-10-16T06:36:02;23;16;
51052;PMS5003;37093;37.716;-122.060;2022-10-16T06:38:32;19;15;
51052;PMS5003;37093;37.716;-122.060;2022-10-16T06:41:01;28;20;
51052;PMS5003;37093;37.716;-122.060;2022-10-16T06:43:30;16;16;
51052;PMS5003;37093;37.716;-122.060;2022-10-16T06:45:59;21;18;
51052;PMS5003;37093;37.716;-122.060;2022-10-16T06:48:29;19;16;
51052;PMS5003;37093;37.716;-122.060;2022-10-16T06:50:58;17;16;
51052;PMS5003;37093;37.716;-122.060;2022-10-16T06:53:29;23;20;
51052;PMS5003;37093;37.716;-122.060;2022-10-16T06:56:01;20;16;
51052;PMS5003;37093;37.716;-122.060;2022-10-16T06:58:35;21;16;
51052;PMS5003;37093;37.716;-122.060;2022-10-16T07:01:12;13;13;
51052;PMS5003;37093;37.716;-122.060;2022-10-16T07:03:43;21;17;
51052;PMS5003;37093;37.716;-122.060;2022-10-16T07:06:13;27;18;
51052;PMS5003;37093;37.716;-122.060;2022-10-16T07:08:44;26;18;
51052;PMS5003;37093;37.716;-122.060;2022-10-16T07:11:14;20;19;
51052;PMS5003;37093;37.716;-122.060;2022-10-16T07:13:44;20;16;
51052;PMS5003;37093;37.716;-122.060;2022-10-16T07:16:15;23;15;
51052;PMS5003;37093;37.716;-122.060;2022-10-16T07:18:45;29;18;
51052;PMS5003;37093;37.716;-122.060;2022-10-16T07:21:15;21;18;
51052;PMS5003;37093;37.716;-122.060;2022-10-16T07:23:44;19;14;
51052;PMS5003;37093;37.716;-122.060;2022-10-16T07:26:12;23;16;
51052;PMS5003;37093;37.716;-122.060;2022-10-16T07:28:40;18;15;
51052;PMS5003;37093;37.716;-122.060;2022-10-16T07:31:11;20;16;
51052;PMS5003;37093;37.716;-122.060;2022-10-16T07:33:42;27;15;
51052;PMS5003;37093;37.716;-122.060;2022-10-16T07:36:11;17;16;
51052;PMS5003;37093;37.716;-122.060;2022-10-16T07:38:41;24;17;
51052;PMS5003;37093;37.716;-122.060;2022-10-16T07:41:10;26;18;
51052;PMS5003;37093;37.716;-122.060;2022-10-16T07:43:40;21;18;
51052;PMS5003;37093;37.716;-122.060;2022-10-16T07:46:14;21;17;
51052;PMS5003;37093;37.716;-122.060;2022-10-16T07:48:43;20;18;
51052;PMS5003;37093;37.716;-122.060;2022-10-16T07:51:12;22;19;
51052;PMS5003;37093;37.716;-122.060;2022-10-16T07:53:42;22;17;
51052;PMS5003;37093;37.716;-122.060;2022-10-16T07:56:10;20;16;
51052;PMS5003;37093;37.716;-122.060;2022-10-16T07:58:39;25;17;
51052;PMS5003;37093;37.716;-122.060;2022-10-16T08:01:09;19;16;
51052;PMS5003;37093;37.716;-122.060;2022-10-16T08:03:41;20;16;
51052;PMS5003;37093;37.716;-122.060;2022-10-16T08:06:09;18;16;
51052;PMS5003;37093;37.716;-122.060;2022-10-16T08:08:38;22;18;
51052;PMS5003;37093;37.716;-122.060;2022-10-16T08:11:07;19;16;
51052;PMS5003;37093;37.716;-122.060;2022-10-16T08:13:36;19;17;
51052;PMS5003;37093;37.716;-122.060;2022-10-16T08:16:04;17;17;
51052;PMS5003;37093;37.716;-122.060;2022-10-16T08:18:34;16;15;
51052;PMS5003;37093;37.716;-122.060;2022-10-16T08:21:03;19;18;
51052;PMS5003;37093;37.716;-122.060;2022-10-16T08:23:33;21;18;
51052;PMS5003;37093;37.716;-122.060;2022-10-16T08:26:03;29;15;
51052;PMS5003;37093;37.716;-122.060;2022-10-16T08:28:32;22;15;
51052;PMS5003;37093;37.716;-122.060;2022-10-16T08:31:08;18;15;
51052;PMS5003;37093;37.716;-122.060;2022-10-16T08:33:38;21;19;
51052;PMS5003;37093;37.716;-122.060;2022-10-16T08:36:09;26;16;
51052;PMS5003;37093;37.716;-122.060;2022-10-16T08:38:39;26;16;
51052;PMS5003;37093;37.716;-122.060;2022-10-16T08:41:19;20;17;
51052;PMS5003;37093;37.716;-122.060;2022-10-16T08:43:59;25;15;
51052;PMS5003;37093;37.716;-122.060;2022-10-16T08:46:40;23;16;
51052;PMS5003;37093;37.716;-122.060;2022-10-16T08:49:15;21;16;
51052;PMS5003;37093;37.716;-122.060;2022-10-16T08:51:44;21;12;
51052;PMS5003;37093;37.716;-122.060;2022-10-16T08:54:19;17;17;
51052;PMS5003;37093;37.716;-122.060;2022-10-16T08:56:55;21;15;
51052;PMS5003;37093;37.716;-122.060;2022-10-16T08:59:28;17;14;
51052;PMS5003;37093;37.716;-122.060;2022-10-16T09:01:56;18;15;
51052;PMS5003;37093;37.716;-122.060;2022-10-16T09:04:39;25;18;
51052;PMS5003;37093;37.716;-122.060;2022-10-16T09:07:22;25;16;
51052;PMS5003;37093;37.716;-122.060;2022-10-16T09:10:04;21;16;
51052;PMS5003;37093;37.716;-122.060;2022-10-16T09:12:43;30;19;
51052;PMS5003;37093;37.716;-122.060;2022-10-16T09:15:22;19;16;
51052;PMS5003;37093;37.716;-122.060;2022-10-16T09:17:58;17;15;
51052;PMS5003;37093;37.716;-122.060;2022-10-16T09:20:35;26;18;
51052;PMS5003;37093;37.716;-122.060;2022-10-16T09:23:14;27;17;
51052;PMS5003;37093;37.716;-122.060;2022-10-16T09:25:46;27;18;
51052;PMS5003;37093;37.716;-122.060;2022-10-16T09:28:17;26;19;
51052;PMS5003;37093;37.716;-122.060;2022-10-16T09:30:46;24;17;
51052;PMS5003;37093;37.716;-122.060;2022-10-16T09:33:16;25;17;
51052;PMS5003;37093;37.716;-122.060;2022-10-16T09:35:46;18;18;
51052;PMS5003;37093;37.716;-122.060;2022-10-16T09:38:22;18;15;
51052;PMS5003;37093;37.716;-122.060;2022-10-16T09:40:52;22;19;
51052;PMS5003;37093;37.716;-122.060;2022-10-16T09:43:23;14;14;
51052;PMS5003;37093;37.716;-122.060;2022-10-16T09:45:54;29;19;
51052;PMS5003;37093;37.716;-122.060;2022-10-16T09:48:25;20;14;
51052;PMS5003;37093;37.716;-122.060;2022-10-16T09:50:56;21;15;
51052;PMS5003;37093;37.716;-122.060;2022-10-16T09:53:27;17;15;
51052;PMS5003;37093;37.716;-122.060;2022-10-16T09:56:09;22;18;
51052;PMS5003;37093;37.716;-122.060;2022-10-16T09:58:41;26;17;
51052;PMS5003;37093;37.716;-122.060;2022-10-16T10:01:11;19;17;
51052;PMS5003;37093;37.716;-122.060;2022-10-16T10:03:42;22;18;
51052;PMS5003;37093;37.716;-122.060;2022-10-16T10:06:20;21;16;
51052;PMS5003;37093;37.716;-122.060;2022-10-16T10:08:53;22;19;
51052;PMS5003;37093;37.716;-122.060;2022-10-16T10:11:40;28;18;
51052;PMS5003;37093;37.716;-122.060;2022-10-16T10:14:16;22;18;
51052;PMS5003;37093;37.716;-122.060;2022-10-16T10:16:47;17;17;
51052;PMS5003;37093;37.716;-122.060;2022-10-16T10:19:17;19;17;
51052;PMS5003;37093;37.716;-122.060;2022-10-16T10:21:48;19;16;
51052;PMS5003;37093;37.716;-122.060;2022-10-16T10:24:18;17;14;
51052;PMS5003;37093;37.716;-122.060;2022-10-16T10:26:50;21;19;
51052;PMS5003;37093;37.716;-122.060;2022-10-16T10:29:31;27;19;
51052;PMS5003;37093;37.716;-122.060;2022-10-16T10:32:13;27;19;
51052;PMS5003;37093;37.716;-122.060;2022-10-16T10:34:54;29;17;
51052;PMS5003;37093;37.716;-122.060;2022-10-16T10:37:40;17;17;
51052;PMS5003;37093;37.716;-122.060;2022-10-16T10:40:23;20;17;
51052;PMS5003;37093;37.716;-122.060;2022-10-16T10:43:03;20;19;
51052;PMS5003;37093;37.716;-122.060;2022-10-16T10:45:41;18;17;
51052;PMS5003;37093;37.716;-122.060;2022-10-16T10:48:15;21;16;
51052;PMS5003;37093;37.716;-122.060;2022-10-16T10:50:53;20;18;
51052;PMS5003;37093;37.716;-122.060;2022-10-16T10:53:32;20;17;
51052;PMS5003;37093;37.716;-122.060;2022-10-16T10:56:14;19;14;
51052;PMS5003;37093;37.716;-122.060;2022-10-16T10:58:58;21;14;
51052;PMS5003;37093;37.716;-122.060;2022-10-16T11:01:36;17;13;
51052;PMS5003;37093;37.716;-122.060;2022-10-16T11:04:16;28;18;
51052;PMS5003;37093;37.716;-122.060;2022-10-16T11:06:59;17;15;
51052;PMS5003;37093;37.716;-122.060;2022-10-16T11:09:32;21;18;
51052;PMS5003;37093;37.716;-122.060;2022-10-16T11:12:06;17;14;
51052;PMS5003;37093;37.716;-122.060;2022-10-16T11:14:40;21;12;
51052;PMS5003;37093;37.716;-122.060;2022-10-16T11:17:14;14;14;
51052;PMS5003;37093;37.716;-122.060;2022-10-16T11:19:46;16;15;
51052;PMS5003;37093;37.716;-122.060;2022-10-16T11:22:22;19;15;
51052;PMS5003;37093;37.716;-122.060;2022-10-16T11:24:58;25;15;
51052;PMS5003;37093;37.716;-122.060;2022-10-16T11:27:35;16;15;
51052;PMS5003;37093;37.716;-122.060;2022-10-16T11:30:11;22;17;
51052;PMS5003;37093;37.716;-122.060;2022-10-16T11:32:50;21;16;
51052;PMS5003;37093;37.716;-122.060;2022-10-16T11:35:31;23;18;
51052;PMS5003;37093;37.716;-122.060;2022-10-16T11:38:09;27;22;
51052;PMS5003;37093;37.716;-122.060;2022-10-16T11:40:43;23;19;
51052;PMS5003;37093;37.716;-122.060;2022-10-16T11:43:17;28;19;
51052;PMS5003;37093;37.716;-122.060;2022-10-16T11:45:51;23;18;
51052;PMS5003;37093;37.716;-122.060;2022-10-16T11:48:24;24;20;
51052;PMS5003;37093;37.716;-122.060;2022-10-16T11:51:00;29;17;
51052;PMS5003;37093;37.716;-122.060;2022-10-16T11:53:39;29;22;
51052;PMS5003;37093;37.716;-122.060;2022-10-16T11:56:13;28;21;
51052;PMS5003;37093;37.716;-122.060;2022-10-16T11:58:47;23;21;
51052;PMS5003;37093;37.716;-122.060;2022-10-16T12:01:26;24;20;
51052;PMS5003;37093;37.716;-122.060;2022-10-16T12:04:02;26;19;
51052;PMS5003;37093;37.716;-122.060;2022-10-16T12:06:42;22;19;
51052;PMS5003;37093;37.716;-122.060;2022-10-16T12:09:15;26;18;
51052;PMS5003;37093;37.716;-122.060;2022-10-16T12:11:48;25;21;
51052;PMS5003;37093;37.716;-122.060;2022-10-16T12:14:22;24;22;
51052;PMS5003;37093;37.716;-122.060;2022-10-16T12:17:03;30;23;
51052;PMS5003;37093;37.716;-122.060;2022-10-16T12:19:57;35;26;
51052;PMS5003;37093;37.716;-122.060;2022-10-16T12:22:28;24;20;
51052;PMS5003;37093;37.716;-122.060;2022-10-16T12:24:58;28;24;
51052;PMS5003;37093;37.716;-122.060;2022-10-16T12:27:28;36;29;
51052;PMS5003;37093;37.716;-122.060;2022-10-16T12:29:58;28;27;
51052;PMS5003;37093;37.716;-122.060;2022-10-16T12:32:29;25;21;
51052;PMS5003;37093;37.716;-122.060;2022-10-16T12:34:59;35;24;
51052;PMS5003;37093;37.716;-122.060;2022-10-16T12:37:31;26;21;
51052;PMS5003;37093;37.716;-122.060;2022-10-16T12:40:10;37;23;
51052;PMS5003;37093;37.716;-122.060;2022-10-16T12:42:40;36;25;
51052;PMS5003;37093;37.716;-122.060;2022-10-16T12:45:23;31;21;
51052;PMS5003;37093;37.716;-122.060;2022-10-16T12:47:54;29;22;
51052;PMS5003;37093;37.716;-122.060;2022-10-16T12:50:23;22;21;
51052;PMS5003;37093;37.716;-122.060;2022-10-16T12:52:54;25;21;
51052;PMS5003;37093;37.716;-122.060;2022-10-16T12:55:23;33;24;
51052;PMS5003;37093;37.716;-122.060;2022-10-16T12:58:00;25;21;
51052;PMS5003;37093;37.716;-122.060;2022-10-16T13:00:38;31;22;
51052;PMS5003;37093;37.716;-122.060;2022-10-16T13:04:20;26;21;
51052;PMS5003;37093;37.716;-122.060;2022-10-16T13:06:59;27;21;
51052;PMS5003;37093;37.716;-122.060;2022-10-16T13:09:44;35;32;
51052;PMS5003;37093;37.716;-122.060;2022-10-16T13:12:31;42;31;
51052;PMS5003;37093;37.716;-122.060;2022-10-16T13:15:22;35;29;
51052;PMS5003;37093;37.716;-122.060;2022-10-16T13:18:02;46;32;
51052;PMS5003;37093;37.716;-122.060;2022-10-16T13:20:42;48;35;
51052;PMS5003;37093;37.716;-122.060;2022-10-16T13:23:24;42;35;
51052;PMS5003;37093;37.716;-122.060;2022-10-16T13:26:05;45;36;
51052;PMS5003;37093;37.716;-122.060;2022-10-16T13:28:43;46;34;
51052;PMS5003;37093;37.716;-122.060;2022-10-16T13:31:14;38;32;
51052;PMS5003;37093;37.716;-122.060;2022-10-16T13:33:47;51;40;
51052;PMS5003;37093;37.716;-122.060;2022-10-16T13:36:20;45;37;
51052;PMS5003;37093;37.716;-122.060;2022-10-16T13:38:59;40;35;
51052;PMS5003;37093;37.716;-122.060;2022-10-16T13:41:33;42;32;
51052;PMS5003;37093;37.716;-122.060;2022-10-16T13:44:01;47;35;
51052;PMS5003;37093;37.716;-122.060;2022-10-16T13:46:30;37;30;
51052;PMS5003;37093;37.716;-122.060;2022-10-16T13:48:59;48;34;
51052;PMS5003;37093;37.716;-122.060;2022-10-16T13:51:30;37;29;
51052;PMS5003;37093;37.716;-122.060;2022-10-16T13:54:00;34;29;
51052;PMS5003;37093;37.716;-122.060;2022-10-16T13:56:28;42;33;
51052;PMS5003;37093;37.716;-122.060;2022-10-16T13:58:58;46;30;
51052;PMS5003;37093;37.716;-122.060;2022-10-16T14:01:28;41;29;
51052;PMS5003;37093;37.716;-122.060;2022-10-16T14:04:01;39;27;
51052;PMS5003;37093;37.716;-122.060;2022-10-16T14:06:31;35;29;
51052;PMS5003;37093;37.716;-122.060;2022-10-16T14:09:05;33;29;
51052;PMS5003;37093;37.716;-122.060;2022-10-16T14:11:37;45;30;
51052;PMS5003;37093;37.716;-122.060;2022-10-16T14:14:13;41;29;
51052;PMS5003;37093;37.716;-122.060;2022-10-16T14:16:42;28;28;
51052;PMS5003;37093;37.716;-122.060;2022-10-16T14:19:14;35;26;
51052;PMS5003;37093;37.716;-122.060;2022-10-16T14:21:47;29;22;
51052;PMS5003;37093;37.716;-122.060;2022-10-16T14:24:24;30;26;
51052;PMS5003;37093;37.716;-122.060;2022-10-16T14:26:54;30;26;
51052;PMS5003;37093;37.716;-122.060;2022-10-16T14:29:22;30;28;
51052;PMS5003;37093;37.716;-122.060;2022-10-16T14:31:55;32;29;
51052;PMS5003;37093;37.716;-122.060;2022-10-16T14:34:25;27;24;
51052;PMS5003;37093;37.716;-122.060;2022-10-16T14:36:56;31;25;
51052;PMS5003;37093;37.716;-122.060;2022-10-16T14:39:26;33;26;
51052;PMS5003;37093;37.716;-122.060;2022-10-16T14:41:56;35;26;
51052;PMS5003;37093;37.716;-122.060;2022-10-16T14:44:27;29;25;
51052;PMS5003;37093;37.716;-122.060;2022-10-16T14:46:58;32;25;
51052;PMS5003;37093;37.716;-122.060;2022-10-16T14:49:36;38;28;
51052;PMS5003;37093;37.716;-122.060;2022-10-16T14:52:08;40;29;
51052;PMS5003;37093;37.716;-122.060;2022-10-16T14:54:38;35;28;
51052;PMS5003;37093;37.716;-122.060;2022-10-16T14:57:13;31;27;
51052;PMS5003;37093;37.716;-122.060;2022-10-16T14:59:44;30;24;
51052;PMS5003;37093;37.716;-122.060;2022-10-16T15:02:18;29;28;
51052;PMS5003;37093;37.716;-122.060;2022-10-16T15:04:52;29;25;
51052;PMS5003;37093;37.716;-122.060;2022-10-16T15:07:26;38;28;
51052;PMS5003;37093;37.716;-122.060;2022-10-16T15:09:54;33;28;
51052;PMS5003;37093;37.716;-122.060;2022-10-16T15:12:22;30;28;
51052;PMS5003;37093;37.716;-122.060;2022-10-16T15:14:50;37;30;
51052;PMS5003;37093;37.716;-122.060;2022-10-16T15:17:18;29;28;
51052;PMS5003;37093;37.716;-122.060;2022-10-16T15:19:47;35;25;
51052;PMS5003;37093;37.716;-122.060;2022-10-16T15:22:15;33;25;
51052;PMS5003;37093;37.716;-122.060;2022-10-16T15:24:44;35;33;
51052;PMS5003;37093;37.716;-122.060;2022-10-16T15:27:12;37;27;
51052;PMS5003;37093;37.716;-122.060;2022-10-16T15:29:40;38;29;
51052;PMS5003;37093;37.716;-122.060;2022-10-16T15:32:08;38;30;
51052;PMS5003;37093;37.716;-122.060;2022-10-16T15:34:38;47;31;
51052;PMS5003;37093;37.716;-122.060;2022-10-16T15:37:06;32;28;
51052;PMS5003;37093;37.716;-122.060;2022-10-16T15:39:36;36;26;
51052;PMS5003;37093;37.716;-122.060;2022-10-16T15:42:04;32;27;
51052;PMS5003;37093;37.716;-122.060;2022-10-16T15:44:32;34;26;
51052;PMS5003;37093;37.716;-122.060;2022-10-16T15:47:00;39;28;
51052;PMS5003;37093;37.716;-122.060;2022-10-16T15:49:28;38;27;
51052;PMS5003;37093;37.716;-122.060;2022-10-16T15:51:57;42;30;
51052;PMS5003;37093;37.716;-122.060;2022-10-16T15:54:25;38;34;
51052;PMS5003;37093;37.716;-122.060;2022-10-16T15:56:54;33;29;
51052;PMS5003;37093;37.716;-122.060;2022-10-16T15:59:22;38;31;
51052;PMS5003;37093;37.716;-122.060;2022-10-16T16:01:51;37;29;